createdAt,value
2023-01-05T00:02:24.148Z,99539.38
2023-01-05T00:04:52.378Z,99526.25
2023-01-05T00:07:20.626Z,99525.53
2023-01-05T00:09:47.779Z,99509.88
2023-01-05T00:12:33.854Z,99493.34
2023-01-05T00:15:19.557Z,99490.66
2023-01-05T00:18:05.781Z,99484.66
2023-01-05T00:20:51.384Z,99468.88
2023-01-05T00:23:18.877Z,99469.75
2023-01-05T00:25:46.025Z,99463.59
2023-01-05T00:28:13.165Z,99467.13
2023-01-05T00:30:41.751Z,99462.06
2023-01-05T00:33:09.667Z,99462.91
2023-01-05T00:35:36.913Z,99467.16
2023-01-05T00:38:04.576Z,99465.44
2023-01-05T00:40:31.759Z,99478.44
2023-01-05T00:42:58.983Z,99483.09
2023-01-05T00:45:27.225Z,99474.09
2023-01-05T00:47:55.166Z,99479.25
2023-01-05T00:50:22.632Z,99474.84
2023-01-05T00:52:50.338Z,99475.84
2023-01-05T00:55:17.589Z,99459.31
2023-01-05T00:57:45.414Z,99457.53
2023-01-05T01:00:14.663Z,99462.59
2023-01-05T01:02:41.826Z,99448.81
2023-01-05T01:05:09.105Z,99468.75
2023-01-05T01:07:36.896Z,99467.44
2023-01-05T01:10:05.401Z,99465.78
2023-01-05T01:12:32.536Z,99468.78
2023-01-05T01:15:00.135Z,99466.81
2023-01-05T01:17:27.278Z,99484.56
2023-01-05T01:19:54.518Z,99481.84
2023-01-05T01:22:21.934Z,99467.41
2023-01-05T01:24:49.077Z,99454.84
2023-01-05T01:27:16.269Z,99448.81
2023-01-05T01:29:43.800Z,99466.03
2023-01-05T01:32:11.003Z,99467.56
2023-01-05T01:34:39.470Z,99462.56
2023-01-05T01:37:06.950Z,99436.66
2023-01-05T01:39:34.563Z,99439.00
2023-01-05T01:42:02.036Z,99437.47
2023-01-05T01:44:48.209Z,99433.25
2023-01-05T01:47:19.431Z,99428.78
2023-01-05T01:49:46.871Z,99440.00
2023-01-05T01:52:14.212Z,99435.09
2023-01-05T01:54:41.361Z,99413.91
2023-01-05T01:57:09.911Z,99410.47
2023-01-05T01:59:37.099Z,99400.28
2023-01-05T02:02:04.745Z,99409.84
2023-01-05T02:04:32.368Z,99404.53
2023-01-05T02:06:59.665Z,99402.72
2023-01-05T02:09:26.837Z,99399.22
2023-01-05T02:12:09.244Z,99395.91
2023-01-05T02:14:58.768Z,99414.22
2023-01-05T02:17:45.444Z,99415.06
2023-01-05T02:20:31.212Z,99414.28
2023-01-05T02:23:06.170Z,99412.34
2023-01-05T02:25:37.039Z,99398.56
2023-01-05T02:28:07.321Z,99371.66
2023-01-05T02:30:40.680Z,99372.47
2023-01-05T02:33:20.029Z,99382.09
2023-01-05T02:35:52.940Z,99374.25
2023-01-05T02:38:26.287Z,99371.59
2023-01-05T02:40:55.491Z,99362.03
2023-01-05T02:43:23.185Z,99360.31
2023-01-05T02:45:50.457Z,99362.03
2023-01-05T02:48:18.075Z,99355.06
2023-01-05T02:51:00.971Z,99352.41
2023-01-05T02:53:30.796Z,99369.06
2023-01-05T02:56:01.068Z,99366.41
2023-01-05T02:58:34.261Z,99344.59
2023-01-05T03:01:06.519Z,99334.19
2023-01-05T03:03:35.674Z,99322.97
2023-01-05T03:06:13.647Z,99318.62
2023-01-05T03:08:44.762Z,99327.25
2023-01-05T03:11:32.246Z,99346.34
2023-01-05T03:14:01.602Z,99330.69
2023-01-05T03:16:29.867Z,99326.34
2023-01-05T03:19:16.529Z,99312.41
2023-01-05T03:22:02.818Z,99313.25
2023-01-05T03:24:49.933Z,99311.59
2023-01-05T03:27:36.655Z,99322.06
2023-01-05T03:30:22.994Z,99318.59
2023-01-05T03:33:10.289Z,99296.00
2023-01-05T03:35:41.807Z,99310.78
2023-01-05T03:38:18.286Z,99327.31
2023-01-05T03:40:46.155Z,99335.09
2023-01-05T03:43:13.831Z,99334.28
2023-01-05T03:46:01.374Z,99316.88
2023-01-05T03:48:30.078Z,99280.38
2023-01-05T03:50:57.313Z,99251.69
2023-01-05T03:53:24.649Z,99236.03
2023-01-05T03:55:52.106Z,99232.56
2023-01-05T03:58:20.778Z,99241.25
2023-01-05T04:00:48.261Z,99230.81
2023-01-05T04:03:17.058Z,99209.94
2023-01-05T04:05:44.355Z,99208.16
2023-01-05T04:08:11.615Z,99228.19
2023-01-05T04:10:39.067Z,99232.53
2023-01-05T04:13:07.683Z,99230.81
2023-01-05T04:15:34.999Z,99227.31
2023-01-05T04:18:03.109Z,99236.91
2023-01-05T04:20:30.271Z,99242.97
2023-01-05T04:22:58.048Z,99241.22
2023-01-05T04:25:25.827Z,99250.78
2023-01-05T04:27:53.159Z,99248.66
2023-01-05T04:30:21.615Z,99254.25
2023-01-05T04:32:49.539Z,99247.28
2023-01-05T04:35:16.758Z,99236.88
2023-01-05T04:37:44.696Z,99247.19
2023-01-05T04:40:13.288Z,99252.38
2023-01-05T04:42:41.597Z,99240.22
2023-01-05T04:45:09.020Z,99226.28
2023-01-05T04:47:36.717Z,99216.84
2023-01-05T04:50:04.784Z,99217.81
2023-01-05T04:52:32.251Z,99210.78
2023-01-05T04:54:59.743Z,99222.13
2023-01-05T04:57:28.466Z,99226.47
2023-01-05T04:59:55.683Z,99223.00
2023-01-05T05:02:24.864Z,99211.72
2023-01-05T05:04:52.537Z,99222.09
2023-01-05T05:07:21.458Z,99215.13
2023-01-05T05:09:48.963Z,99222.97
2023-01-05T05:12:20.373Z,99214.25
2023-01-05T05:14:49.952Z,99213.34
2023-01-05T05:17:17.340Z,99220.97
2023-01-05T05:19:44.848Z,99204.56
2023-01-05T05:22:12.863Z,99210.69
2023-01-05T05:24:40.085Z,99212.28
2023-01-05T05:27:08.022Z,99202.28
2023-01-05T05:29:35.510Z,99201.84
2023-01-05T05:32:02.710Z,99195.41
2023-01-05T05:34:29.961Z,99203.63
2023-01-05T05:36:57.405Z,99191.63
2023-01-05T05:39:24.552Z,99197.88
2023-01-05T05:41:51.717Z,99190.34
2023-01-05T05:44:19.179Z,99198.16
2023-01-05T05:46:46.465Z,99202.66
2023-01-05T05:49:13.705Z,99189.03
2023-01-05T05:51:41.214Z,99194.00
2023-01-05T05:54:08.723Z,99193.31
2023-01-05T05:56:35.920Z,99172.59
2023-01-05T05:59:03.357Z,99179.81
2023-01-05T06:01:30.668Z,99177.50
2023-01-05T06:03:58.202Z,99172.59
2023-01-05T06:06:25.407Z,99160.34
2023-01-05T06:08:52.564Z,99184.78
2023-01-05T06:11:19.996Z,99201.09
2023-01-05T06:13:48.852Z,99203.00
2023-01-05T06:16:16.149Z,99201.22
2023-01-05T06:18:43.603Z,99199.41
2023-01-05T06:21:10.770Z,99192.59
2023-01-05T06:23:37.917Z,99190.00
2023-01-05T06:26:05.498Z,99189.97
2023-01-05T06:28:32.719Z,99181.25
2023-01-05T06:30:59.857Z,99183.03
2023-01-05T06:33:27.326Z,99162.19
2023-01-05T06:35:54.576Z,99155.25
2023-01-05T06:38:21.737Z,99169.13
2023-01-05T06:40:49.656Z,99151.75
2023-01-05T06:43:16.914Z,99136.91
2023-01-05T06:45:44.254Z,99147.31
2023-01-05T06:48:11.710Z,99134.22
2023-01-05T06:50:38.904Z,99130.78
2023-01-05T06:53:06.101Z,99123.78
2023-01-05T06:55:33.546Z,99118.63
2023-01-05T06:58:01.382Z,99111.81
2023-01-05T07:00:29.014Z,99124.78
2023-01-05T07:02:56.516Z,99120.44
2023-01-05T07:05:24.675Z,99112.59
2023-01-05T07:07:52.013Z,99111.69
2023-01-05T07:10:19.501Z,99123.87
2023-01-05T07:12:46.691Z,99109.13
2023-01-05T07:15:13.833Z,99089.09
2023-01-05T07:17:41.257Z,99102.09
2023-01-05T07:20:08.678Z,99089.03
2023-01-05T07:22:35.861Z,99104.72
2023-01-05T07:25:03.375Z,99099.59
2023-01-05T07:27:30.609Z,99116.00
2023-01-05T07:29:57.765Z,99129.00
2023-01-05T07:32:25.212Z,99122.19
2023-01-05T07:34:55.737Z,99117.81
2023-01-05T07:37:24.884Z,99131.72
2023-01-05T07:39:54.075Z,99113.50
2023-01-05T07:42:21.291Z,99104.75
2023-01-05T07:44:48.621Z,99122.06
2023-01-05T07:47:16.070Z,99093.59
2023-01-05T07:49:43.240Z,99091.00
2023-01-05T07:52:10.389Z,99115.25
2023-01-05T07:54:37.798Z,99100.50
2023-01-05T07:57:04.953Z,99101.44
2023-01-05T07:59:32.130Z,99081.41
2023-01-05T08:01:59.717Z,99072.75
2023-01-05T08:04:27.897Z,99106.63
2023-01-05T08:06:56.345Z,99114.91
2023-01-05T08:09:42.003Z,99124.87
2023-01-05T08:12:10.815Z,99110.06
2023-01-05T08:14:38.702Z,99103.13
2023-01-05T08:17:05.847Z,99099.66
2023-01-05T08:19:33.262Z,99088.25
2023-01-05T08:22:00.704Z,99076.06
2023-01-05T08:24:27.839Z,99072.56
2023-01-05T08:26:55.297Z,99077.81
2023-01-05T08:29:22.490Z,99077.75
2023-01-05T08:31:49.744Z,99083.03
2023-01-05T08:34:17.238Z,99091.88
2023-01-05T08:36:44.635Z,99085.78
2023-01-05T08:39:11.906Z,99077.91
2023-01-05T08:41:40.047Z,99078.78
2023-01-05T08:44:08.516Z,99084.91
2023-01-05T08:46:35.884Z,99084.00
2023-01-05T08:49:04.502Z,99079.66
2023-01-05T08:51:31.943Z,99074.53
2023-01-05T08:53:59.096Z,99113.53
2023-01-05T08:56:27.601Z,99096.13
2023-01-05T08:58:59.036Z,99083.88
2023-01-05T09:01:26.646Z,99086.59
2023-01-05T09:03:53.917Z,99087.53
2023-01-05T09:06:21.063Z,99089.28
2023-01-05T09:08:48.743Z,99087.53
2023-01-05T09:11:17.885Z,99095.28
2023-01-05T09:13:45.888Z,99098.84
2023-01-05T09:16:14.029Z,99106.97
2023-01-05T09:18:41.567Z,99097.69
2023-01-05T09:21:09.487Z,99098.47
2023-01-05T09:23:37.173Z,99116.78
2023-01-05T09:26:05.129Z,99107.22
2023-01-05T09:28:32.342Z,99112.47
2023-01-05T09:30:59.787Z,99102.16
2023-01-05T09:33:26.962Z,99092.59
2023-01-05T09:35:57.368Z,99075.66
2023-01-05T09:38:24.972Z,99068.91
2023-01-05T09:40:53.201Z,99069.16
2023-01-05T09:43:33.456Z,99064.94
2023-01-05T09:46:01.138Z,99066.13
2023-01-05T09:48:29.838Z,99056.37
2023-01-05T09:50:57.217Z,99055.59
2023-01-05T09:53:27.800Z,99052.47
2023-01-05T09:55:55.082Z,99048.41
2023-01-05T09:58:29.675Z,99047.53
2023-01-05T10:01:02.806Z,99043.88
2023-01-05T10:04:02.405Z,99044.88
2023-01-05T10:06:18.767Z,99033.66
2023-01-05T10:08:47.217Z,99025.00
2023-01-05T10:11:34.022Z,99024.19
2023-01-05T10:14:09.651Z,99017.03
2023-01-05T10:16:36.873Z,99014.56
2023-01-05T10:19:04.345Z,99018.00
2023-01-05T10:21:46.709Z,99014.59
2023-01-05T10:24:22.468Z,99011.16
2023-01-05T10:29:50.038Z,99035.44
2023-01-05T10:32:22.937Z,99038.63
2023-01-05T10:34:57.678Z,99031.97
2023-01-05T10:37:31.310Z,99025.03
2023-01-05T10:39:58.686Z,99043.72
2023-01-05T10:42:45.604Z,99047.56
2023-01-05T10:45:13.528Z,99030.19
2023-01-05T10:47:41.150Z,99038.91
2023-01-05T10:50:25.247Z,99031.94
2023-01-05T10:52:53.260Z,99040.59
2023-01-05T10:55:20.463Z,99031.13
2023-01-05T10:57:47.631Z,99029.28
2023-01-05T11:00:18.201Z,99036.28
2023-01-05T11:02:51.551Z,99035.28
2023-01-05T11:05:19.117Z,99034.53
2023-01-05T11:07:56.466Z,99047.56
2023-01-05T11:10:37.118Z,99066.66
2023-01-05T11:13:04.255Z,99043.06
2023-01-05T11:15:32.660Z,99040.66
2023-01-05T11:17:59.939Z,99057.09
2023-01-05T11:20:27.706Z,99056.22
2023-01-05T11:22:55.174Z,99067.44
2023-01-05T11:25:32.235Z,99072.75
2023-01-05T11:28:18.630Z,99075.38
2023-01-05T11:31:02.161Z,99077.84
2023-01-05T11:33:30.020Z,99079.63
2023-01-05T11:35:57.313Z,99085.78
2023-01-05T11:38:25.813Z,99101.37
2023-01-05T11:40:56.155Z,99113.44
2023-01-05T11:43:23.753Z,99125.47
2023-01-05T11:45:52.231Z,99120.53
2023-01-05T11:48:20.941Z,99117.84
2023-01-05T11:50:50.377Z,99112.50
2023-01-05T11:53:32.859Z,99114.31
2023-01-05T11:56:03.348Z,99111.78
2023-01-05T11:58:33.370Z,99099.63
2023-01-05T12:01:20.282Z,99093.47
2023-01-05T12:04:01.660Z,99093.47
2023-01-05T12:06:35.118Z,99094.28
2023-01-05T12:09:22.082Z,99108.94
2023-01-05T12:11:52.079Z,99109.87
2023-01-05T12:14:36.503Z,99116.94
2023-01-05T12:17:06.222Z,99121.25
2023-01-05T12:19:42.439Z,99127.41
2023-01-05T12:22:18.951Z,99111.81
2023-01-05T12:24:48.981Z,99114.44
2023-01-05T12:27:20.134Z,99124.75
2023-01-05T12:35:53.704Z,99122.88
2023-01-05T12:38:31.060Z,99103.91
2023-01-05T12:41:07.585Z,99117.63
2023-01-05T12:43:53.312Z,99115.91
2023-01-05T12:46:26.681Z,99113.50
2023-01-05T12:48:55.652Z,99096.69
2023-01-05T12:51:36.355Z,99094.97
2023-01-05T12:54:06.543Z,99093.19
2023-01-05T12:56:38.589Z,99084.84
2023-01-05T12:59:14.895Z,99056.25
2023-01-05T13:01:55.139Z,99068.38
2023-01-05T13:04:39.130Z,99057.97
2023-01-05T13:07:32.768Z,99060.59
2023-01-05T13:10:03.262Z,99049.31
2023-01-05T13:12:31.717Z,99048.44
2023-01-05T13:15:19.091Z,99031.97
2023-01-05T13:17:47.827Z,99034.59
2023-01-05T13:20:22.311Z,99053.41
2023-01-05T13:22:49.797Z,99045.84
2023-01-05T13:25:16.912Z,99051.88
2023-01-05T13:27:44.080Z,99055.28
2023-01-05T13:30:24.700Z,99063.16
2023-01-05T13:33:05.491Z,99052.59
2023-01-05T13:35:41.305Z,99050.19
2023-01-05T13:38:27.191Z,99053.56
2023-01-05T13:41:16.424Z,99044.94
2023-01-05T13:43:47.331Z,99051.91
2023-01-05T13:46:21.509Z,99044.66
2023-01-05T13:49:03.243Z,99050.00
2023-01-05T13:51:49.986Z,99057.06
2023-01-05T13:54:33.053Z,99064.97
2023-01-05T13:57:21.395Z,99058.69
2023-01-05T14:00:04.715Z,99061.41
2023-01-05T14:02:42.287Z,99046.59
2023-01-05T14:05:17.224Z,99042.34
2023-01-05T14:07:44.364Z,99047.56
2023-01-05T14:10:22.561Z,99051.88
2023-01-05T14:12:50.249Z,99055.34
2023-01-05T14:15:37.741Z,99058.81
2023-01-05T14:18:05.782Z,99057.09
2023-01-05T14:20:49.436Z,99063.25
2023-01-05T14:23:23.237Z,99064.53
2023-01-05T14:26:00.808Z,99069.19
2023-01-05T14:28:28.001Z,99067.56
2023-01-05T14:31:26.047Z,99064.97
2023-01-05T14:33:59.150Z,99068.41
2023-01-05T14:36:50.208Z,99078.87
2023-01-05T14:39:17.876Z,99089.19
2023-01-05T14:41:46.644Z,99097.81
2023-01-05T14:44:24.431Z,99101.41
2023-01-05T14:46:52.578Z,99109.84
2023-01-05T14:49:21.266Z,99100.53
2023-01-05T14:51:52.322Z,99102.16
2023-01-05T14:54:34.411Z,99100.06
2023-01-05T14:57:20.601Z,99099.50
2023-01-05T14:59:48.440Z,99108.16
2023-01-05T15:02:18.856Z,99108.87
2023-01-05T15:04:45.994Z,99106.28
2023-01-05T15:07:13.410Z,99121.88
2023-01-05T15:10:01.354Z,99113.50
2023-01-05T15:12:38.163Z,99128.19
2023-01-05T15:15:24.226Z,99125.53
2023-01-05T15:17:53.642Z,99121.03
2023-01-05T15:20:29.758Z,99122.75
2023-01-05T15:23:06.368Z,99116.37
2023-01-05T15:25:53.090Z,99113.44
2023-01-05T15:28:39.531Z,99104.69
2023-01-05T15:31:16.293Z,99122.91
2023-01-05T15:33:50.921Z,99120.44
2023-01-05T15:36:29.081Z,99122.97
2023-01-05T15:38:57.670Z,99124.78
2023-01-05T15:41:25.449Z,99130.88
2023-01-05T15:43:52.912Z,99132.31
2023-01-05T15:46:21.309Z,99118.78
2023-01-05T15:48:50.859Z,99125.44
2023-01-05T15:51:22.375Z,99124.72
2023-01-05T15:53:54.916Z,99132.37
2023-01-05T15:56:25.633Z,99128.31
2023-01-05T15:58:53.104Z,99134.19
2023-01-05T16:01:20.998Z,99143.62
2023-01-05T16:03:48.788Z,99136.75
2023-01-05T16:06:20.256Z,99146.56
2023-01-05T16:08:48.497Z,99152.50
2023-01-05T16:11:18.052Z,99148.28
2023-01-05T16:13:48.290Z,99152.50
2023-01-05T16:16:55.452Z,99159.12
2023-01-05T16:19:17.307Z,99154.09
2023-01-05T16:21:46.153Z,99165.91
2023-01-05T16:24:15.909Z,99164.16
2023-01-05T16:26:43.049Z,99162.00
2023-01-05T16:29:20.973Z,99161.25
2023-01-05T16:31:55.457Z,99156.78
2023-01-05T16:34:31.611Z,99164.63
2023-01-05T16:37:08.400Z,99180.16
2023-01-05T16:39:37.195Z,99170.69
2023-01-05T16:42:23.775Z,99175.22
2023-01-05T16:44:52.099Z,99189.12
2023-01-05T16:47:26.923Z,99179.34
2023-01-05T16:49:58.255Z,99177.84
2023-01-05T16:52:30.951Z,99193.31
2023-01-05T16:55:27.855Z,99175.09
2023-01-05T16:57:55.939Z,99191.41
2023-01-05T17:00:26.153Z,99181.12
2023-01-05T17:02:54.537Z,99176.94
2023-01-05T17:05:22.836Z,99182.00
2023-01-05T17:07:58.725Z,99192.31
2023-01-05T17:10:26.426Z,99180.31
2023-01-05T17:13:01.207Z,99184.63
2023-01-05T17:15:29.719Z,99177.78
2023-01-05T17:17:57.171Z,99178.50
2023-01-05T17:20:25.023Z,99189.00
2023-01-05T17:22:53.400Z,99191.03
2023-01-05T17:25:20.844Z,99189.72
2023-01-05T17:27:49.605Z,99183.69
2023-01-05T17:30:20.780Z,99180.06
2023-01-05T17:32:48.211Z,99171.66
2023-01-05T17:35:18.463Z,99174.94
2023-01-05T17:37:47.378Z,99177.31
2023-01-05T17:40:17.035Z,99188.00
2023-01-05T17:42:44.489Z,99191.50
2023-01-05T17:45:16.658Z,99200.94
2023-01-05T17:47:44.159Z,99210.56
2023-01-05T17:50:13.683Z,99212.12
2023-01-05T17:52:40.905Z,99209.41
2023-01-05T17:55:08.443Z,99212.75
2023-01-05T17:57:35.849Z,99202.84
2023-01-05T18:00:07.819Z,99204.44
2023-01-05T18:02:35.825Z,99206.59
2023-01-05T18:05:03.644Z,99202.34
2023-01-05T18:07:31.474Z,99211.84
2023-01-05T18:09:59.609Z,99206.81
2023-01-05T18:12:26.832Z,99209.97
2023-01-05T18:14:54.316Z,99206.63
2023-01-05T18:17:21.798Z,99212.16
2023-01-05T18:19:49.111Z,99204.69
2023-01-05T18:22:16.437Z,99203.56
2023-01-05T18:24:44.379Z,99198.66
2023-01-05T18:27:12.222Z,99199.75
2023-01-05T18:29:40.921Z,99202.22
2023-01-05T18:32:08.945Z,99190.19
2023-01-05T18:34:36.452Z,99199.94
2023-01-05T18:37:10.480Z,99210.56
2023-01-05T18:39:38.840Z,99198.09
2023-01-05T18:42:06.325Z,99209.19
2023-01-05T18:44:33.693Z,99196.00
2023-01-05T18:47:01.422Z,99203.13
2023-01-05T18:49:28.679Z,99198.09
2023-01-05T18:51:55.815Z,99198.31
2023-01-05T18:54:23.627Z,99213.28
2023-01-05T18:56:51.293Z,99193.75
2023-01-05T18:59:18.690Z,99197.16
2023-01-05T19:01:46.238Z,99196.34
2023-01-05T19:04:15.109Z,99185.94
2023-01-05T19:06:42.314Z,99189.09
2023-01-05T19:09:10.376Z,99202.09
2023-01-05T19:11:38.312Z,99209.88
2023-01-05T19:14:06.103Z,99217.25
2023-01-05T19:16:34.692Z,99205.12
2023-01-05T19:19:05.159Z,99209.31
2023-01-05T19:21:33.455Z,99211.00
2023-01-05T19:24:01.353Z,99216.91
2023-01-05T19:26:30.689Z,99227.22
2023-01-05T19:29:02.486Z,99232.84
2023-01-05T19:31:30.754Z,99246.41
2023-01-05T19:33:59.463Z,99234.22
2023-01-05T19:36:32.298Z,99227.41
2023-01-05T19:39:00.901Z,99235.44
2023-01-05T19:41:28.434Z,99242.25
2023-01-05T19:43:56.257Z,99247.44
2023-01-05T19:46:25.184Z,99231.66
2023-01-05T19:48:52.784Z,99247.91
2023-01-05T19:51:22.403Z,99252.53
2023-01-05T19:54:01.110Z,99259.06
2023-01-05T19:56:33.480Z,99251.06
2023-01-05T19:59:02.669Z,99251.97
2023-01-05T20:01:31.263Z,99260.16
2023-01-05T20:03:59.197Z,99260.31
2023-01-05T20:06:27.662Z,99263.97
2023-01-05T20:08:56.641Z,99265.72
2023-01-05T20:11:38.111Z,99269.25
2023-01-05T20:14:09.159Z,99269.25
2023-01-05T20:16:38.017Z,99277.69
2023-01-05T20:19:05.381Z,99272.69
2023-01-05T20:21:32.836Z,99284.69
2023-01-05T20:24:01.872Z,99292.34
2023-01-05T20:26:31.578Z,99284.81
2023-01-05T20:29:02.136Z,99275.38
2023-01-05T20:31:32.989Z,99268.63
2023-01-05T20:34:03.346Z,99274.72
2023-01-05T20:36:32.628Z,99283.25
2023-01-05T20:39:00.485Z,99296.81
2023-01-05T20:41:28.685Z,99296.84
2023-01-05T20:43:56.849Z,99299.13
2023-01-05T20:46:34.351Z,99299.72
2023-01-05T20:49:01.918Z,99302.84
2023-01-05T20:51:29.042Z,99299.34
2023-01-05T20:53:57.231Z,99305.88
2023-01-05T20:56:26.074Z,99313.53
2023-01-05T20:58:53.845Z,99323.22
2023-01-05T21:01:21.471Z,99318.66
2023-01-05T21:03:50.521Z,99320.00
2023-01-05T21:06:18.094Z,99320.06
2023-01-05T21:08:48.894Z,99328.03
2023-01-05T21:11:22.877Z,99329.47
2023-01-05T21:13:50.352Z,99334.88
2023-01-05T21:16:21.603Z,99340.19
2023-01-05T21:18:49.079Z,99330.37
2023-01-05T21:21:17.729Z,99341.31
2023-01-05T21:23:48.032Z,99341.53
2023-01-05T21:26:16.526Z,99348.88
2023-01-05T21:28:44.129Z,99332.91
2023-01-05T21:31:13.463Z,99338.13
2023-01-05T21:33:40.985Z,99337.72
2023-01-05T21:36:09.682Z,99334.72
2023-01-05T21:39:02.124Z,99335.31
2023-01-05T21:41:43.110Z,99336.84
2023-01-05T21:44:11.232Z,99333.84
2023-01-05T21:46:39.228Z,99341.88
2023-01-05T21:49:06.978Z,99337.91
2023-01-05T21:51:53.120Z,99340.00
2023-01-05T21:54:39.114Z,99334.91
2023-01-05T21:57:06.915Z,99352.00
2023-01-05T21:59:34.204Z,99353.97
2023-01-05T22:02:01.317Z,99345.50
2023-01-05T22:04:28.754Z,99345.53
2023-01-05T22:06:55.995Z,99347.34
2023-01-05T22:09:23.118Z,99340.41
2023-01-05T22:11:50.561Z,99348.91
2023-01-05T22:14:17.800Z,99337.81
2023-01-05T22:16:44.925Z,99343.44
2023-01-05T22:19:12.381Z,99345.34
2023-01-05T22:21:39.502Z,99344.81
2023-01-05T22:24:06.925Z,99343.63
2023-01-05T22:26:34.346Z,99354.41
2023-01-05T22:29:01.509Z,99362.16
2023-01-05T22:31:29.614Z,99360.78
2023-01-05T22:33:57.937Z,99360.87
2023-01-05T22:36:25.584Z,99367.87
2023-01-05T22:38:52.996Z,99369.37
2023-01-05T22:41:21.486Z,99377.31
2023-01-05T22:43:48.892Z,99383.87
2023-01-05T22:46:20.310Z,99384.47
2023-01-05T22:48:48.920Z,99392.81
2023-01-05T22:51:17.049Z,99401.59
2023-01-05T22:53:44.401Z,99406.84
2023-01-05T22:56:12.428Z,99405.22
2023-01-05T22:58:39.683Z,99411.16
2023-01-05T23:01:06.895Z,99427.28
2023-01-05T23:03:34.347Z,99424.34
2023-01-05T23:06:01.482Z,99430.66
2023-01-05T23:08:31.982Z,99432.53
2023-01-05T23:11:03.675Z,99433.38
2023-01-05T23:13:30.875Z,99438.66
2023-01-05T23:15:58.216Z,99438.44
2023-01-05T23:18:25.641Z,99443.66
2023-01-05T23:20:56.718Z,99446.34
2023-01-05T23:23:24.120Z,99451.63
2023-01-05T23:25:51.853Z,99461.72
2023-01-05T23:28:19.478Z,99455.81
2023-01-05T23:30:47.128Z,99459.41
2023-01-05T23:33:15.019Z,99452.44
2023-01-05T23:35:45.734Z,99456.72
2023-01-05T23:38:14.431Z,99449.94
2023-01-05T23:40:42.581Z,99443.84
2023-01-05T23:43:14.100Z,99448.22
2023-01-05T23:45:43.077Z,99445.53
2023-01-05T23:48:13.727Z,99441.25
2023-01-05T23:50:41.380Z,99448.09
2023-01-05T23:53:08.801Z,99442.94
2023-01-05T23:55:36.016Z,99453.16
2023-01-05T23:58:03.363Z,99449.09
